Pagrindinis puslapis
METAR-TAF:

METAR-TAF

Oro uostai :

Qaisumah, Saudo Arabija

platuma: 28-19N, ilguma: 046-07E, Aukštis: 358 m

Dabartinis oras

Ataskaita buvo paskelbta 1 valandą ir 16 minutes, ne 17:00 UTC
Vėjas 6 kt iš Šiaurės
Temperatūra 30°C
Drėgmė 31%
Slėgis 1017 hPa
Matomumas 10 km arba daugiau
nėra debesų žemiau 1500 m ir nėra kamuolinių lietaus debesų

METAR: OEPA 171700Z 36006KT CAVOK 30/11 Q1017 NOSIG

Laikas: 21:16 (18:16 UTC)

Prognozė

Ataskaita buvo paskelbta 7 valandos ir 16 minutes, ne 11:00 UTC
Prognozė galioja nuo 17 metu 12 UTC su 18 metu 18 UTC
Vėjas 12 kt iš Šiaurės/Šiaurės Rytų
Matomumas: 7000 m
Mažai debesys ne aukštis 4000 ft
Tapsmas
nuo 17 metu 20 UTC su 17 metu 22 UTC
Vėjas 3 kt nuo kintamojo kryptimis

TAF: OEPA 171100Z 1712/1818 02012KT 7000 FEW040 BECMG 1720/1722 VRB03KT

Orai ataskaitas ir orų prognozės (METAR, TAF).

turimą stotys yra geltonos ir raudonos taškus žemėlapyje.

Perkelti pele per norėdami pamatyti stoties vardą.

Tada spustelėkite, norėdami matyti oro stebėjimo ir prognozės.

Norėdami pakeisti žemėlapį: spustelėkite ant žalios mygtukų su juodo kryžiaus žemyn,; žalią mygtuką su brūkšneliu, jei norite nutolinti; arba žalių rodyklių gretimoms žemėlapius.


METAR-TAF: